Time;durP1;ratioP1;P1;durP2;ratioP2;P2;SDS_P1;SDS_P2;PMS_P1;PMS_P2;Temp;Humidity;BMP_temperature;BMP_pressure;BME280_temperature;BME280_humidity;BME280_pressure;Samples;Min_cycle;Max_cycle;Signal;HPM_P1;HPM_P2
2023/06/29 00:02:26;;;;;;;8.50;5.90;;;;;;;;;;108484;1251;22638;-83
2023/06/29 00:04:55;;;;;;;6.90;5.60;;;;;;;;;;108399;1250;22540;-79
2023/06/29 00:07:25;;;;;;;12.90;7.50;;;;;;;;;;108483;1251;22572;-84
2023/06/29 00:09:54;;;;;;;8.00;6.90;;;;;;;;;;108567;1251;22958;-83
2023/06/29 00:12:20;;;;;;;8.60;6.70;;;;;;;;;;108478;1250;23590;-83
2023/06/29 00:14:47;;;;;;;9.40;7.40;;;;;;;;;;108492;1251;22575;-80
2023/06/29 00:17:14;;;;;;;9.90;7.50;;;;;;;;;;108437;1251;23423;-80
2023/06/29 00:19:41;;;;;;;12.90;7.50;;;;;;;;;;108419;1250;24344;-84
2023/06/29 00:22:09;;;;;;;12.10;8.80;;;;;;;;;;108441;1253;22541;-80
2023/06/29 00:24:42;;;;;;;9.10;7.10;;;;;;;;;;108454;1251;22568;-80
2023/06/29 00:27:09;;;;;;;11.10;7.90;;;;;;;;;;108492;1251;22755;-84
2023/06/29 00:29:36;;;;;;;14.90;7.90;;;;;;;;;;108428;1251;24436;-84
2023/06/29 00:32:03;;;;;;;9.30;7.60;;;;;;;;;;108331;1251;22644;-81
2023/06/29 00:34:29;;;;;;;14.40;7.30;;;;;;;;;;108247;1251;25471;-84
2023/06/29 00:36:55;;;;;;;9.20;7.20;;;;;;;;;;108310;1251;23399;-84
2023/06/29 00:39:22;;;;;;;10.70;7.70;;;;;;;;;;108310;1251;25375;-84
2023/06/29 00:41:52;;;;;;;8.80;6.90;;;;;;;;;;108324;1255;22531;-81
2023/06/29 00:44:18;;;;;;;9.40;7.60;;;;;;;;;;108324;1251;22667;-84
2023/06/29 00:46:45;;;;;;;8.10;6.30;;;;;;;;;;108156;1251;22999;-80
2023/06/29 00:49:12;;;;;;;11.40;7.90;;;;;;;;;;108242;1251;22563;-84
2023/06/29 00:51:38;;;;;;;9.50;7.90;;;;;;;;;;108362;1251;23392;-80
2023/06/29 00:54:04;;;;;;;8.80;7.60;;;;;;;;;;108346;1251;25513;-80
2023/06/29 00:56:31;;;;;;;9.30;8.30;;;;;;;;;;108349;1251;23285;-80
2023/06/29 00:58:57;;;;;;;9.90;7.80;;;;;;;;;;108168;1251;22540;-84
2023/06/29 01:01:23;;;;;;;9.80;8.10;;;;;;;;;;108263;1251;23310;-83
2023/06/29 01:03:50;;;;;;;8.90;8.00;;;;;;;;;;108343;1250;22654;-80
2023/06/29 01:06:18;;;;;;;11.10;8.40;;;;;;;;;;108329;1251;26339;-84
2023/06/29 01:08:46;;;;;;;11.30;9.30;;;;;;;;;;108337;1251;22642;-80
2023/06/29 01:11:12;;;;;;;13.50;8.80;;;;;;;;;;108260;1251;24247;-80
2023/06/29 01:13:39;;;;;;;12.90;8.90;;;;;;;;;;108377;1254;25484;-84
2023/06/29 01:16:05;;;;;;;13.50;8.80;;;;;;;;;;108314;1251;22664;-84
2023/06/29 01:18:32;;;;;;;15.10;10.80;;;;;;;;;;108302;1251;23867;-84
2023/06/29 01:20:59;;;;;;;13.00;9.70;;;;;;;;;;108279;1251;23329;-83
2023/06/29 01:23:25;;;;;;;13.90;10.40;;;;;;;;;;108138;1251;22615;-84
2023/06/29 01:25:55;;;;;;;10.50;9.00;;;;;;;;;;108372;1250;22784;-84
2023/06/29 01:28:21;;;;;;;16.40;9.80;;;;;;;;;;108263;1254;23276;-84
2023/06/29 01:30:49;;;;;;;12.60;9.90;;;;;;;;;;108459;1253;22562;-79
2023/06/29 01:33:16;;;;;;;11.40;9.20;;;;;;;;;;108246;1251;25375;-84
2023/06/29 01:35:42;;;;;;;11.20;9.50;;;;;;;;;;108169;1252;22649;-80
2023/06/29 01:38:13;;;;;;;12.80;10.60;;;;;;;;;;108158;1251;22688;-80
2023/06/29 01:40:40;;;;;;;14.90;9.70;;;;;;;;;;108387;1255;25430;-84
2023/06/29 01:43:06;;;;;;;13.50;10.20;;;;;;;;;;108230;1251;22541;-80
2023/06/29 01:45:33;;;;;;;15.40;10.30;;;;;;;;;;108309;1251;23122;-80
2023/06/29 01:47:59;;;;;;;12.00;10.10;;;;;;;;;;108192;1251;22693;-83
2023/06/29 01:50:26;;;;;;;13.50;9.40;;;;;;;;;;108369;1251;23327;-84
2023/06/29 01:52:52;;;;;;;16.30;11.70;;;;;;;;;;108271;1255;23271;-80
2023/06/29 01:55:20;;;;;;;12.90;10.70;;;;;;;;;;108270;1251;22551;-80
2023/06/29 01:57:47;;;;;;;12.10;10.60;;;;;;;;;;108235;1251;22604;-84
2023/06/29 02:00:13;;;;;;;12.50;10.10;;;;;;;;;;108379;1251;23064;-79
2023/06/29 02:02:40;;;;;;;14.10;11.10;;;;;;;;;;108317;1251;22559;-84
2023/06/29 02:05:07;;;;;;;18.30;11.30;;;;;;;;;;108258;1251;22517;-84
2023/06/29 02:07:33;;;;;;;15.10;10.80;;;;;;;;;;108479;1256;22640;-84
2023/06/29 02:10:00;;;;;;;13.10;10.80;;;;;;;;;;108394;1253;24016;-84
2023/06/29 02:12:27;;;;;;;13.10;11.20;;;;;;;;;;108239;1251;26427;-83
2023/06/29 02:14:53;;;;;;;13.60;11.40;;;;;;;;;;108304;1251;22777;-83
2023/06/29 02:17:20;;;;;;;15.20;11.00;;;;;;;;;;108226;1251;22554;-79
2023/06/29 02:19:46;;;;;;;14.80;10.60;;;;;;;;;;108368;1251;22763;-83
2023/06/29 02:22:13;;;;;;;12.80;11.10;;;;;;;;;;108380;1252;25493;-83
2023/06/29 02:24:39;;;;;;;12.60;10.40;;;;;;;;;;108104;1252;22659;-83
2023/06/29 02:27:06;;;;;;;16.10;11.70;;;;;;;;;;108339;1251;22635;-84
2023/06/29 02:29:32;;;;;;;11.60;10.20;;;;;;;;;;108369;1251;25998;-83
2023/06/29 02:31:59;;;;;;;13.30;10.00;;;;;;;;;;108353;1251;22556;-80
2023/06/29 02:34:25;;;;;;;13.70;10.90;;;;;;;;;;108424;1251;22555;-80
2023/06/29 02:36:52;;;;;;;25.80;14.30;;;;;;;;;;108311;1251;22659;-79
2023/06/29 02:39:18;;;;;;;15.90;12.40;;;;;;;;;;108307;1251;22733;-79
2023/06/29 02:41:44;;;;;;;19.00;12.80;;;;;;;;;;108360;1251;25510;-83
2023/06/29 02:44:11;;;;;;;18.00;12.00;;;;;;;;;;108063;1251;22531;-79
2023/06/29 02:46:37;;;;;;;21.60;12.60;;;;;;;;;;108243;1251;23934;-83
2023/06/29 02:49:03;;;;;;;16.90;12.80;;;;;;;;;;108291;1251;25492;-83
2023/06/29 02:51:30;;;;;;;16.40;11.20;;;;;;;;;;108368;1251;25360;-79
2023/06/29 02:53:56;;;;;;;15.80;12.80;;;;;;;;;;108287;1251;24379;-83
2023/06/29 02:56:23;;;;;;;16.10;11.90;;;;;;;;;;108134;1251;22684;-83
2023/06/29 02:58:49;;;;;;;15.60;11.10;;;;;;;;;;108090;1256;22535;-84
2023/06/29 03:01:16;;;;;;;16.40;11.10;;;;;;;;;;108372;1252;22521;-83
2023/06/29 03:03:42;;;;;;;17.60;11.20;;;;;;;;;;108303;1251;22574;-79
2023/06/29 03:06:08;;;;;;;11.80;9.80;;;;;;;;;;108278;1252;22602;-83
2023/06/29 03:08:35;;;;;;;14.30;11.30;;;;;;;;;;108259;1251;23044;-83
2023/06/29 03:11:01;;;;;;;13.90;10.70;;;;;;;;;;108307;1251;26519;-83
2023/06/29 03:13:28;;;;;;;14.60;10.50;;;;;;;;;;108300;1251;22535;-79
2023/06/29 03:15:59;;;;;;;12.70;10.90;;;;;;;;;;108313;1251;22646;-83
2023/06/29 03:18:25;;;;;;;17.30;11.30;;;;;;;;;;108272;1251;26259;-80
2023/06/29 03:20:51;;;;;;;16.20;11.30;;;;;;;;;;108233;1251;22759;-83
2023/06/29 03:23:18;;;;;;;13.50;10.10;;;;;;;;;;108368;1251;22561;-79
2023/06/29 03:25:44;;;;;;;16.60;10.70;;;;;;;;;;108451;1251;22609;-83
2023/06/29 03:28:10;;;;;;;14.30;10.90;;;;;;;;;;108206;1251;23048;-79
2023/06/29 03:30:37;;;;;;;13.80;9.80;;;;;;;;;;108428;1251;25341;-79
2023/06/29 03:33:03;;;;;;;14.70;13.00;;;;;;;;;;108274;1251;22600;-80
2023/06/29 03:35:29;;;;;;;16.90;12.40;;;;;;;;;;108240;1251;22687;-83
2023/06/29 03:37:56;;;;;;;14.30;10.90;;;;;;;;;;108276;1251;22607;-79
2023/06/29 03:40:22;;;;;;;11.30;9.50;;;;;;;;;;108304;1251;24092;-80
2023/06/29 03:42:49;;;;;;;13.20;10.80;;;;;;;;;;108276;1251;24479;-79
2023/06/29 03:45:16;;;;;;;17.60;10.90;;;;;;;;;;108343;1251;22563;-82
2023/06/29 03:47:42;;;;;;;13.70;11.20;;;;;;;;;;108249;1251;22569;-78
2023/06/29 03:50:09;;;;;;;19.00;11.80;;;;;;;;;;108380;1251;22769;-79
2023/06/29 03:52:35;;;;;;;13.70;11.40;;;;;;;;;;108299;1251;23348;-79
2023/06/29 03:55:03;;;;;;;12.70;11.00;;;;;;;;;;108304;1251;23627;-82
2023/06/29 03:57:29;;;;;;;12.50;10.90;;;;;;;;;;108294;1251;22594;-82
2023/06/29 03:59:55;;;;;;;14.30;10.60;;;;;;;;;;108428;1251;25394;-83
2023/06/29 04:02:22;;;;;;;13.20;11.30;;;;;;;;;;108317;1252;22638;-79
2023/06/29 04:04:48;;;;;;;12.80;11.20;;;;;;;;;;108421;1251;22671;-82
2023/06/29 04:07:15;;;;;;;16.70;10.30;;;;;;;;;;108407;1252;22616;-83
2023/06/29 04:09:41;;;;;;;14.80;10.60;;;;;;;;;;107747;1251;23035;-79
2023/06/29 04:12:07;;;;;;;16.50;11.00;;;;;;;;;;107590;1251;22612;-79
2023/06/29 04:14:34;;;;;;;14.00;10.70;;;;;;;;;;108069;1251;22562;-82
2023/06/29 04:17:00;;;;;;;13.50;10.30;;;;;;;;;;107885;1249;22537;-79
2023/06/29 04:19:27;;;;;;;13.30;11.50;;;;;;;;;;107645;1251;22553;-83
2023/06/29 04:21:53;;;;;;;16.90;11.20;;;;;;;;;;108251;1251;25136;-82
2023/06/29 04:24:20;;;;;;;14.50;11.40;;;;;;;;;;107984;1251;22838;-82
2023/06/29 04:26:47;;;;;;;15.90;11.20;;;;;;;;;;107562;1253;22527;-79
2023/06/29 04:29:13;;;;;;;15.20;11.10;;;;;;;;;;107516;1251;22792;-82
2023/06/29 04:31:40;;;;;;;14.90;11.30;;;;;;;;;;107539;1252;22529;-79
2023/06/29 04:34:06;;;;;;;13.80;10.10;;;;;;;;;;107634;1250;22518;-84
2023/06/29 04:36:33;;;;;;;12.50;10.70;;;;;;;;;;108270;1251;25465;-79
2023/06/29 04:39:00;;;;;;;13.90;11.30;;;;;;;;;;108026;1251;22599;-83
2023/06/29 04:41:33;;;;;;;12.20;10.60;;;;;;;;;;108106;1256;22539;-79
2023/06/29 04:44:00;;;;;;;13.80;11.90;;;;;;;;;;107980;1256;23228;-83
2023/06/29 04:46:28;;;;;;;14.30;10.60;;;;;;;;;;108050;1252;25361;-83
2023/06/29 04:48:54;;;;;;;12.80;11.30;;;;;;;;;;108261;1250;22548;-79
2023/06/29 04:51:21;;;;;;;14.00;11.40;;;;;;;;;;108087;1254;22711;-79
2023/06/29 04:53:47;;;;;;;12.80;10.90;;;;;;;;;;108046;1254;25371;-83
2023/06/29 04:56:14;;;;;;;16.90;12.40;;;;;;;;;;108080;1249;22524;-83
2023/06/29 04:58:40;;;;;;;13.70;11.20;;;;;;;;;;108047;1252;25480;-79
2023/06/29 05:01:06;;;;;;;15.30;11.40;;;;;;;;;;108227;1251;22606;-83
2023/06/29 05:03:33;;;;;;;17.90;12.10;;;;;;;;;;108081;1255;22618;-83
2023/06/29 05:05:59;;;;;;;14.30;10.60;;;;;;;;;;108105;1251;22639;-83
2023/06/29 05:08:25;;;;;;;14.80;11.60;;;;;;;;;;107986;1251;22642;-83
2023/06/29 05:10:52;;;;;;;16.70;12.70;;;;;;;;;;108245;1251;22565;-79
2023/06/29 05:13:18;;;;;;;17.80;12.20;;;;;;;;;;108006;1252;24254;-83
2023/06/29 05:15:47;;;;;;;16.10;13.10;;;;;;;;;;107969;1251;22653;-79
2023/06/29 05:18:14;;;;;;;20.20;12.90;;;;;;;;;;107988;1251;22656;-83
2023/06/29 05:20:41;;;;;;;15.90;13.00;;;;;;;;;;108138;1251;22502;-83
2023/06/29 05:23:09;;;;;;;16.50;12.30;;;;;;;;;;108303;1254;22519;-84
2023/06/29 05:25:35;;;;;;;18.00;12.40;;;;;;;;;;107541;1253;22864;-80
2023/06/29 05:28:02;;;;;;;14.10;12.30;;;;;;;;;;108082;1253;22581;-80
2023/06/29 05:30:29;;;;;;;16.60;11.50;;;;;;;;;;108281;1251;23271;-80
2023/06/29 05:32:55;;;;;;;12.20;10.70;;;;;;;;;;108242;1254;22577;-83
2023/06/29 05:35:21;;;;;;;14.20;11.60;;;;;;;;;;107884;1251;23612;-83
2023/06/29 05:37:48;;;;;;;14.40;11.10;;;;;;;;;;108013;1251;25384;-83
2023/06/29 05:40:15;;;;;;;16.90;10.90;;;;;;;;;;108170;1251;25506;-85
2023/06/29 05:42:41;;;;;;;16.80;10.70;;;;;;;;;;108113;1253;22538;-80
2023/06/29 05:45:08;;;;;;;16.80;12.00;;;;;;;;;;108029;1254;23387;-83
2023/06/29 05:47:35;;;;;;;16.00;12.20;;;;;;;;;;108135;1251;22646;-83
2023/06/29 05:50:01;;;;;;;13.80;10.70;;;;;;;;;;108323;1252;22735;-79
2023/06/29 05:52:27;;;;;;;15.00;10.20;;;;;;;;;;108212;1251;22575;-79
2023/06/29 05:54:54;;;;;;;10.40;9.30;;;;;;;;;;108518;1251;23295;-80
2023/06/29 05:57:20;;;;;;;11.90;8.90;;;;;;;;;;108310;1251;23331;-79
2023/06/29 05:59:47;;;;;;;10.60;9.00;;;;;;;;;;108399;1251;22632;-79
2023/06/29 06:02:13;;;;;;;13.80;9.20;;;;;;;;;;108407;1251;22523;-83
2023/06/29 06:04:40;;;;;;;17.20;9.30;;;;;;;;;;108250;1267;22519;-80
2023/06/29 06:07:06;;;;;;;14.30;9.10;;;;;;;;;;108221;1251;23019;-79
2023/06/29 06:09:33;;;;;;;12.70;9.90;;;;;;;;;;108174;1251;22570;-80
2023/06/29 06:11:59;;;;;;;15.50;10.10;;;;;;;;;;108344;1251;24341;-84
2023/06/29 06:14:25;;;;;;;13.60;9.20;;;;;;;;;;108196;1251;25317;-85
2023/06/29 06:16:52;;;;;;;13.60;9.90;;;;;;;;;;108175;1253;22595;-80
2023/06/29 06:19:19;;;;;;;11.40;8.10;;;;;;;;;;108210;1251;22845;-80
2023/06/29 06:21:45;;;;;;;11.30;8.00;;;;;;;;;;108289;1252;22526;-80
2023/06/29 06:24:11;;;;;;;10.80;8.60;;;;;;;;;;108315;1252;25391;-83
2023/06/29 06:26:38;;;;;;;10.10;8.00;;;;;;;;;;108177;1252;24349;-84
2023/06/29 06:29:04;;;;;;;13.10;7.80;;;;;;;;;;108408;1251;22626;-79
2023/06/29 06:31:31;;;;;;;10.80;8.50;;;;;;;;;;108195;1254;22543;-84
2023/06/29 06:33:57;;;;;;;9.80;8.10;;;;;;;;;;108087;1251;22570;-79
2023/06/29 06:36:24;;;;;;;10.00;7.50;;;;;;;;;;108269;1249;22658;-80
2023/06/29 06:38:51;;;;;;;12.40;7.40;;;;;;;;;;109988;1250;23035;-80
2023/06/29 06:41:18;;;;;;;11.90;7.40;;;;;;;;;;109026;1252;23347;-80
2023/06/29 06:43:44;;;;;;;11.80;8.40;;;;;;;;;;108321;1251;22540;-81
2023/06/29 06:46:11;;;;;;;11.60;6.90;;;;;;;;;;108095;1252;22523;-80
2023/06/29 06:48:37;;;;;;;11.40;6.80;;;;;;;;;;108186;1250;22587;-80
2023/06/29 06:51:04;;;;;;;13.20;7.60;;;;;;;;;;108434;1250;22540;-80
2023/06/29 06:53:31;;;;;;;10.60;6.70;;;;;;;;;;108302;1251;23128;-83
2023/06/29 06:55:57;;;;;;;11.20;5.60;;;;;;;;;;108360;1251;22552;-80
2023/06/29 06:58:23;;;;;;;8.40;7.10;;;;;;;;;;108330;1253;24369;-85
2023/06/29 07:00:50;;;;;;;11.00;6.20;;;;;;;;;;108327;1251;22846;-80
2023/06/29 07:03:18;;;;;;;10.90;6.60;;;;;;;;;;108423;1254;22568;-84
2023/06/29 07:05:45;;;;;;;7.50;6.30;;;;;;;;;;108328;1254;22521;-80
2023/06/29 07:08:12;;;;;;;9.90;5.40;;;;;;;;;;109703;1251;691100;-80
2023/06/29 07:10:38;;;;;;;8.20;6.30;;;;;;;;;;108056;1252;25315;-80
2023/06/29 07:13:05;;;;;;;8.50;6.90;;;;;;;;;;108182;1253;24475;-80
2023/06/29 07:15:31;;;;;;;8.00;5.60;;;;;;;;;;108281;1255;22604;-83
2023/06/29 07:17:58;;;;;;;8.40;5.20;;;;;;;;;;108319;1251;25378;-81
2023/06/29 07:20:24;;;;;;;10.50;7.00;;;;;;;;;;108221;1268;22545;-83
2023/06/29 07:22:51;;;;;;;9.90;6.10;;;;;;;;;;108094;1255;25349;-82
2023/06/29 07:25:17;;;;;;;11.80;7.40;;;;;;;;;;108173;1251;23184;-84
2023/06/29 07:27:43;;;;;;;7.30;5.70;;;;;;;;;;109548;1251;22390;-84
2023/06/29 07:30:10;;;;;;;9.70;5.90;;;;;;;;;;108677;1253;22569;-80
2023/06/29 07:32:36;;;;;;;9.40;5.60;;;;;;;;;;108262;1254;22776;-81
2023/06/29 07:35:03;;;;;;;5.80;5.20;;;;;;;;;;108256;1251;22598;-80
2023/06/29 07:37:29;;;;;;;6.00;5.10;;;;;;;;;;108355;1253;25178;-80
2023/06/29 07:39:56;;;;;;;9.00;5.20;;;;;;;;;;108525;1251;25279;-84
2023/06/29 07:42:22;;;;;;;5.60;4.30;;;;;;;;;;108664;1251;23155;-84
2023/06/29 07:44:49;;;;;;;7.30;5.10;;;;;;;;;;108681;1252;23234;-84
2023/06/29 07:47:15;;;;;;;7.40;5.20;;;;;;;;;;108548;1251;25544;-84
2023/06/29 07:49:41;;;;;;;10.40;6.70;;;;;;;;;;108458;1251;25640;-79
2023/06/29 07:52:08;;;;;;;10.60;6.30;;;;;;;;;;108437;1251;22567;-84
2023/06/29 07:54:34;;;;;;;6.50;5.60;;;;;;;;;;108569;1251;22648;-85
2023/06/29 07:57:00;;;;;;;10.70;5.70;;;;;;;;;;108626;1251;22545;-84
2023/06/29 07:59:27;;;;;;;9.70;5.70;;;;;;;;;;108519;1253;25340;-80
2023/06/29 08:01:54;;;;;;;5.70;4.30;;;;;;;;;;108113;1251;27498;-80
2023/06/29 08:04:20;;;;;;;8.10;4.10;;;;;;;;;;108230;1252;22645;-80
2023/06/29 08:06:46;;;;;;;4.90;4.30;;;;;;;;;;108323;1250;25278;-80
2023/06/29 08:09:14;;;;;;;6.60;4.60;;;;;;;;;;108219;1251;25497;-80
2023/06/29 08:11:40;;;;;;;5.50;4.10;;;;;;;;;;108737;1251;22646;-80
2023/06/29 08:14:07;;;;;;;7.40;4.30;;;;;;;;;;108312;1253;22646;-80
2023/06/29 08:16:33;;;;;;;5.80;4.10;;;;;;;;;;108140;1252;22570;-84
2023/06/29 08:18:59;;;;;;;7.80;5.00;;;;;;;;;;108179;1252;25014;-80
2023/06/29 08:21:26;;;;;;;9.60;5.00;;;;;;;;;;108108;1253;22568;-84
2023/06/29 08:23:52;;;;;;;7.50;4.40;;;;;;;;;;108070;1252;22543;-85
2023/06/29 08:26:19;;;;;;;4.90;4.40;;;;;;;;;;108481;1255;23006;-85
2023/06/29 08:28:45;;;;;;;7.30;4.50;;;;;;;;;;108419;1251;24186;-85
2023/06/29 08:31:12;;;;;;;6.90;4.20;;;;;;;;;;108358;1253;24253;-80
2023/06/29 08:33:39;;;;;;;5.20;4.60;;;;;;;;;;108338;1251;23247;-85
2023/06/29 08:36:06;;;;;;;5.50;4.20;;;;;;;;;;108266;1251;25515;-85
2023/06/29 08:38:32;;;;;;;6.90;5.10;;;;;;;;;;108326;1249;26446;-85
2023/06/29 08:40:59;;;;;;;8.70;4.00;;;;;;;;;;108053;1253;22527;-85
2023/06/29 08:43:26;;;;;;;5.60;4.80;;;;;;;;;;108109;1252;24268;-80
2023/06/29 08:45:52;;;;;;;8.80;4.70;;;;;;;;;;108267;1251;22615;-80
2023/06/29 08:48:19;;;;;;;8.00;4.60;;;;;;;;;;108268;1254;23349;-80
2023/06/29 08:50:47;;;;;;;8.10;4.50;;;;;;;;;;108110;1250;22540;-85
2023/06/29 08:53:13;;;;;;;5.30;4.60;;;;;;;;;;108216;1250;22517;-85
2023/06/29 08:55:41;;;;;;;5.80;4.90;;;;;;;;;;108190;1253;25295;-85
2023/06/29 08:58:07;;;;;;;9.10;5.00;;;;;;;;;;108183;1251;21984;-85
2023/06/29 09:00:34;;;;;;;6.00;4.70;;;;;;;;;;108184;1252;22518;-85
2023/06/29 09:03:01;;;;;;;5.90;5.00;;;;;;;;;;108236;1253;22540;-81
2023/06/29 09:05:27;;;;;;;9.40;5.30;;;;;;;;;;108154;1253;22537;-85
2023/06/29 09:07:54;;;;;;;8.20;5.50;;;;;;;;;;108060;1254;22531;-80
2023/06/29 09:10:22;;;;;;;9.30;5.70;;;;;;;;;;108204;1251;22652;-85
2023/06/29 09:12:49;;;;;;;7.40;5.00;;;;;;;;;;108186;1251;25318;-80
2023/06/29 09:15:16;;;;;;;7.30;4.70;;;;;;;;;;108096;1251;24409;-85
2023/06/29 09:17:45;;;;;;;9.00;4.70;;;;;;;;;;108439;1250;22731;-80
2023/06/29 09:20:15;;;;;;;7.80;5.90;;;;;;;;;;108040;1253;22643;-81
2023/06/29 09:22:42;;;;;;;11.20;6.50;;;;;;;;;;108282;1252;22616;-80
2023/06/29 09:25:11;;;;;;;10.50;5.90;;;;;;;;;;108282;1251;25470;-86
2023/06/29 09:27:37;;;;;;;9.00;7.30;;;;;;;;;;108247;1255;25345;-85
2023/06/29 09:30:04;;;;;;;7.10;5.80;;;;;;;;;;108463;1251;24228;-81
2023/06/29 09:32:31;;;;;;;11.10;8.20;;;;;;;;;;110619;1251;22438;-81
2023/06/29 09:35:03;;;;;;;8.80;7.10;;;;;;;;;;108516;1251;25311;-81
2023/06/29 09:37:30;;;;;;;7.60;6.50;;;;;;;;;;108311;1253;24104;-85
2023/06/29 09:39:56;;;;;;;8.50;6.00;;;;;;;;;;108180;1252;23751;-85
2023/06/29 09:42:23;;;;;;;8.60;5.20;;;;;;;;;;108247;1255;22650;-85
2023/06/29 09:44:49;;;;;;;7.40;5.30;;;;;;;;;;108241;1251;24341;-85
2023/06/29 09:47:17;;;;;;;6.30;4.20;;;;;;;;;;108224;1251;24409;-86
2023/06/29 09:49:44;;;;;;;10.10;6.20;;;;;;;;;;108334;1253;22623;-80
2023/06/29 09:52:10;;;;;;;10.00;5.10;;;;;;;;;;110526;1251;22333;-82
2023/06/29 09:54:37;;;;;;;7.20;4.70;;;;;;;;;;110586;1253;23050;-81
2023/06/29 09:57:03;;;;;;;7.90;4.80;;;;;;;;;;110692;1251;22411;-86
2023/06/29 09:59:30;;;;;;;6.00;4.90;;;;;;;;;;110516;1251;22400;-86
2023/06/29 10:01:57;;;;;;;12.80;4.70;;;;;;;;;;110561;1251;23581;-86
2023/06/29 10:04:24;;;;;;;7.50;4.70;;;;;;;;;;110607;1251;22361;-82
2023/06/29 10:06:53;;;;;;;8.50;5.30;;;;;;;;;;110511;1257;23096;-86
2023/06/29 10:09:19;;;;;;;8.30;5.30;;;;;;;;;;108901;1251;22665;-86
2023/06/29 10:11:47;;;;;;;7.10;5.10;;;;;;;;;;108309;1256;26421;-82
2023/06/29 10:14:14;;;;;;;9.00;5.10;;;;;;;;;;108362;1253;23902;-86
2023/06/29 10:16:41;;;;;;;7.20;5.40;;;;;;;;;;108155;1251;24372;-86
2023/06/29 10:19:09;;;;;;;11.70;4.60;;;;;;;;;;108212;1253;22565;-82
2023/06/29 10:21:36;;;;;;;;;;;;;;;;;;108299;1253;25337;-82
2023/06/29 10:24:02;;;;;;;5.80;4.90;;;;;;;;;;108486;1266;22563;-82
2023/06/29 10:26:28;;;;;;;8.10;4.50;;;;;;;;;;108590;1251;24160;-82
2023/06/29 10:28:55;;;;;;;5.20;4.10;;;;;;;;;;108525;1254;22523;-81
2023/06/29 10:31:29;;;;;;;6.10;4.00;;;;;;;;;;108274;1252;22983;-85
2023/06/29 10:33:55;;;;;;;5.00;4.20;;;;;;;;;;108353;1251;22532;-82
2023/06/29 10:36:22;;;;;;;10.00;4.90;;;;;;;;;;108230;1257;22570;-81
2023/06/29 10:38:48;;;;;;;5.40;4.80;;;;;;;;;;108142;1251;22543;-82
2023/06/29 10:41:25;;;;;;;6.70;4.50;;;;;;;;;;108222;1251;22594;-86
2023/06/29 10:43:55;;;;;;;5.20;4.70;;;;;;;;;;108043;1251;22542;-86
2023/06/29 10:46:40;;;;;;;5.70;4.30;;;;;;;;;;108176;1255;22546;-86
2023/06/29 10:49:09;;;;;;;6.10;4.20;;;;;;;;;;108225;1251;25335;-86
2023/06/29 10:51:48;;;;;;;6.80;4.30;;;;;;;;;;108131;1251;22526;-86
2023/06/29 10:54:15;;;;;;;6.60;3.70;;;;;;;;;;108254;1251;23021;-82
2023/06/29 10:56:43;;;;;;;3.90;3.50;;;;;;;;;;108085;1255;22563;-86
2023/06/29 10:59:10;;;;;;;;;;;;;;;;;;108069;1257;22810;-86
2023/06/29 11:01:36;;;;;;;4.80;3.20;;;;;;;;;;108220;1253;22648;-82
2023/06/29 11:04:03;;;;;;;7.70;3.70;;;;;;;;;;108246;1251;23913;-82
2023/06/29 11:06:33;;;;;;;5.30;3.60;;;;;;;;;;108207;1251;23133;-86
2023/06/29 11:09:01;;;;;;;6.80;3.50;;;;;;;;;;108281;1255;25252;-86
2023/06/29 11:11:27;;;;;;;6.30;3.60;;;;;;;;;;108379;1253;25193;-82
2023/06/29 11:13:56;;;;;;;4.60;3.40;;;;;;;;;;108359;1255;22634;-86
2023/06/29 11:16:22;;;;;;;3.80;3.40;;;;;;;;;;108189;1253;23087;-81
2023/06/29 11:18:49;;;;;;;8.10;3.60;;;;;;;;;;108269;1253;22540;-86
2023/06/29 11:21:16;;;;;;;6.70;3.60;;;;;;;;;;108164;1253;23238;-86
2023/06/29 11:23:49;;;;;;;4.70;3.50;;;;;;;;;;108566;1250;22542;-87
2023/06/29 11:26:16;;;;;;;5.60;3.40;;;;;;;;;;108671;1251;23032;-83
2023/06/29 11:28:43;;;;;;;4.10;3.10;;;;;;;;;;108163;1253;22540;-87
2023/06/29 11:31:09;;;;;;;5.00;3.50;;;;;;;;;;108161;1251;22545;-87
2023/06/29 11:33:45;;;;;;;3.70;3.20;;;;;;;;;;108198;1251;22530;-82
2023/06/29 11:36:12;;;;;;;4.20;3.00;;;;;;;;;;108245;1256;22531;-86
2023/06/29 11:38:38;;;;;;;3.70;3.10;;;;;;;;;;108202;1256;25479;-82
2023/06/29 11:41:05;;;;;;;5.10;3.20;;;;;;;;;;108238;1251;24376;-82
2023/06/29 11:43:31;;;;;;;5.60;3.20;;;;;;;;;;108196;1255;22534;-82
2023/06/29 11:45:58;;;;;;;7.70;3.60;;;;;;;;;;108244;1251;24199;-87
2023/06/29 11:48:24;;;;;;;5.40;3.20;;;;;;;;;;108174;1256;22587;-87
2023/06/29 11:50:50;;;;;;;4.30;3.30;;;;;;;;;;108197;1253;22763;-87
2023/06/29 11:53:17;;;;;;;4.50;3.30;;;;;;;;;;108276;1251;22550;-82
2023/06/29 11:55:50;;;;;;;6.00;3.40;;;;;;;;;;108252;1255;25355;-87
2023/06/29 11:58:16;;;;;;;5.70;2.80;;;;;;;;;;108315;1253;23149;-87
2023/06/29 12:00:42;;;;;;;3.90;3.30;;;;;;;;;;108174;1255;22572;-87
2023/06/29 12:03:09;;;;;;;3.50;2.90;;;;;;;;;;108362;1251;25221;-87
2023/06/29 12:05:40;;;;;;;4.20;3.30;;;;;;;;;;108224;1251;23575;-87
2023/06/29 12:08:07;;;;;;;10.20;3.20;;;;;;;;;;109297;1255;22637;-87
2023/06/29 12:10:34;;;;;;;4.40;3.30;;;;;;;;;;108109;1251;22514;-82
2023/06/29 12:13:00;;;;;;;3.20;2.80;;;;;;;;;;108203;1267;25368;-83
2023/06/29 12:15:27;;;;;;;4.80;2.90;;;;;;;;;;108240;1255;22998;-82
2023/06/29 12:18:28;;;;;;;6.20;2.90;;;;;;;;;;108161;1251;24206;-82
2023/06/29 12:20:54;;;;;;;4.40;3.30;;;;;;;;;;109208;1250;22500;-83
2023/06/29 12:23:20;;;;;;;4.60;3.10;;;;;;;;;;108139;1251;24195;-82
2023/06/29 12:25:47;;;;;;;4.30;2.90;;;;;;;;;;108383;1255;22531;-82
2023/06/29 12:28:14;;;;;;;3.90;3.10;;;;;;;;;;108217;1254;24278;-87
2023/06/29 12:30:40;;;;;;;4.80;2.80;;;;;;;;;;108240;1254;26324;-83
2023/06/29 12:33:08;;;;;;;4.90;2.90;;;;;;;;;;108206;1252;22581;-87
2023/06/29 12:35:34;;;;;;;;;;;;;;;;;;108075;1252;23256;-87
2023/06/29 12:38:00;;;;;;;4.10;2.70;;;;;;;;;;108106;1257;24203;-87
2023/06/29 12:40:27;;;;;;;3.40;3.10;;;;;;;;;;108218;1255;22619;-83
2023/06/29 12:42:53;;;;;;;3.80;3.40;;;;;;;;;;108271;1251;25513;-87
2023/06/29 12:45:20;;;;;;;4.90;3.00;;;;;;;;;;108086;1251;23003;-87
2023/06/29 12:47:46;;;;;;;4.50;2.90;;;;;;;;;;108319;1251;22822;-83
2023/06/29 12:50:13;;;;;;;4.60;3.10;;;;;;;;;;108294;1253;27518;-82
2023/06/29 12:52:39;;;;;;;4.80;3.10;;;;;;;;;;108281;1251;22622;-87
2023/06/29 12:55:06;;;;;;;2.90;2.50;;;;;;;;;;108175;1251;22660;-83
2023/06/29 12:57:32;;;;;;;4.20;3.10;;;;;;;;;;108338;1255;22514;-82
2023/06/29 12:59:59;;;;;;;3.20;2.80;;;;;;;;;;108512;1251;24169;-83
2023/06/29 13:02:26;;;;;;;3.30;2.70;;;;;;;;;;108516;1255;22516;-82
2023/06/29 13:04:52;;;;;;;3.30;2.60;;;;;;;;;;108335;1253;22566;-83
2023/06/29 13:07:19;;;;;;;4.00;3.10;;;;;;;;;;108447;1256;24767;-82
2023/06/29 13:09:47;;;;;;;2.80;2.50;;;;;;;;;;108415;1255;24248;-87
2023/06/29 13:12:17;;;;;;;4.20;3.10;;;;;;;;;;108558;1253;22650;-87
2023/06/29 13:14:49;;;;;;;4.20;3.00;;;;;;;;;;108469;1251;22674;-83
2023/06/29 13:17:15;;;;;;;5.60;3.50;;;;;;;;;;108473;1256;23168;-87
2023/06/29 13:19:42;;;;;;;8.30;4.00;;;;;;;;;;108637;1251;22573;-82
2023/06/29 13:22:08;;;;;;;4.10;2.90;;;;;;;;;;108632;1251;22531;-87
2023/06/29 13:24:35;;;;;;;7.40;4.40;;;;;;;;;;108495;1251;24192;-85
2023/06/29 13:27:04;;;;;;;3.80;3.20;;;;;;;;;;108261;1250;22545;-82
2023/06/29 13:29:31;;;;;;;3.60;3.10;;;;;;;;;;108199;1251;24372;-87
2023/06/29 13:31:57;;;;;;;4.50;2.80;;;;;;;;;;108270;1251;23030;-87
2023/06/29 13:34:25;;;;;;;4.90;2.70;;;;;;;;;;108292;1251;22629;-87
2023/06/29 13:36:52;;;;;;;6.10;2.80;;;;;;;;;;108213;1251;22585;-87
2023/06/29 13:39:18;;;;;;;4.20;2.90;;;;;;;;;;108266;1251;22647;-83
2023/06/29 13:41:45;;;;;;;3.70;2.60;;;;;;;;;;108250;1251;25328;-87
2023/06/29 13:44:12;;;;;;;7.10;3.50;;;;;;;;;;108624;1254;22577;-87
2023/06/29 13:46:39;;;;;;;9.00;2.70;;;;;;;;;;108655;1251;25370;-87
2023/06/29 13:49:05;;;;;;;3.20;2.90;;;;;;;;;;108226;1251;22638;-82
2023/06/29 13:51:33;;;;;;;6.10;2.80;;;;;;;;;;108279;1251;23231;-86
2023/06/29 13:53:59;;;;;;;;;;;;;;;;;;108174;1251;22545;-82
2023/06/29 13:56:25;;;;;;;4.50;3.10;;;;;;;;;;108205;1255;22545;-86
2023/06/29 13:58:53;;;;;;;5.00;2.70;;;;;;;;;;108147;1251;22641;-86
2023/06/29 14:01:19;;;;;;;;;;;;;;;;;;108171;1256;23256;-86
2023/06/29 14:03:46;;;;;;;4.60;3.50;;;;;;;;;;108191;1251;24183;-86
2023/06/29 14:06:13;;;;;;;4.00;2.50;;;;;;;;;;108182;1254;24988;-83
2023/06/29 14:08:39;;;;;;;4.60;2.80;;;;;;;;;;108086;1251;22533;-87
2023/06/29 14:11:06;;;;;;;6.80;3.60;;;;;;;;;;108244;1251;22618;-82
2023/06/29 14:13:32;;;;;;;6.80;2.60;;;;;;;;;;108273;1251;22527;-82
2023/06/29 14:15:59;;;;;;;3.40;2.80;;;;;;;;;;108756;1254;22537;-82
2023/06/29 14:18:25;;;;;;;4.10;2.50;;;;;;;;;;108783;1251;23156;-87
2023/06/29 14:20:51;;;;;;;6.10;2.40;;;;;;;;;;108511;1256;25266;-86